Main page
METAR-TAF:

METAR-TAF

Airports :

St Athan, Wales

MOD St Athan

latitude: 51-24N, longitude: 003-26W, elevation: 50 m

Current weather observation

The report was made 1 hour and 4 minutes ago, at 17:50 UTC
Wind 17 kt from the East/Northeast
Temperature 15°C
Humidity 55%
Pressure 1020 hPa
Visibility 10 km or more

METAR: EGDX 261750Z AUTO 07017KT 9999 NCD 15/06 Q1020

Time: 19:54 (18:54 UTC)

Forecast

The report was made 5 hours and 39 minutes ago, at 13:15 UTC
Forecast valid from 26 at 15 UTC to 26 at 18 UTC
Wind 15 kt from the East
Visibility 10 km or more
no clouds below 1500 m and no cumulonimbus
Temporary
from 26 at 15 UTC to 26 at 17 UTC
Wind 15 kt from the East/Northeast with gusts up to 25 kt

TAF: EGDX 261315Z 2615/2618 08015KT CAVOK TEMPO 2615/2617 07015G25KT

Weather observations and forecasts of more than 4000 airports (METAR and TAF reports).

The available stations are represented by yellow and red dots on the map.

Hover mouse over dot to see the name of the station.

Then click to see weather observations and forecasts.

To change the map : click on the green buttons with a black cross to zoom in, on the green button with a dash to zoom out, or on the green arrows for adjacent maps.


METAR-TAF: